Laplace, Louisiana
Current Conditions -  °F | °C
As of 6:55 AM on Thursday 30 Oct 2014 (Local Time) from K1L0 Reporting Station
Clear Clear  
Wind Chill: 60°   Ceiling: Unl
Heat Index: 60°   Visibility: 10mi
Dew Point: 49°   Wind: 7mph
Humidity: 67%   Direction: 30°NNE
Pressure: 30.1"   Gusts: NA
Location:  30.0647°N, 90.4828°W
Report Text: K1L0 301155Z AUTO 03006KT 10SM CLR 16/09 A3010 RMK AO2 7//// T01550093 10195 20155
Loading
Personal Weather Stations






























Interactive Weather Map
Tropical Storm Tracking
New forecast layout! Learn more

10-Day Weather Forecast

Advertisements
Track Severe Weather on mobile